sensor_id;sensor_type;location;lat;lon;timestamp;P1;durP1;ratioP1;P2;durP2;ratioP2
15063;SDS011;7631;52.088;5.088;2023-08-01T00:00:50;1.70;;;1.30;;
15063;SDS011;7631;52.088;5.088;2023-08-01T00:03:15;2.83;;;1.30;;
15063;SDS011;7631;52.088;5.088;2023-08-01T00:05:41;0.97;;;0.77;;
15063;SDS011;7631;52.088;5.088;2023-08-01T00:08:10;1.13;;;0.80;;
15063;SDS011;7631;52.088;5.088;2023-08-01T00:10:37;1.63;;;1.10;;
15063;SDS011;7631;52.088;5.088;2023-08-01T00:13:02;1.27;;;1.10;;
15063;SDS011;7631;52.088;5.088;2023-08-01T00:15:27;1.57;;;1.10;;
15063;SDS011;7631;52.088;5.088;2023-08-01T00:17:52;1.17;;;0.90;;
15063;SDS011;7631;52.088;5.088;2023-08-01T00:20:17;1.87;;;1.20;;
15063;SDS011;7631;52.088;5.088;2023-08-01T00:22:43;1.10;;;0.90;;
15063;SDS011;7631;52.088;5.088;2023-08-01T00:25:09;1.20;;;1.10;;
15063;SDS011;7631;52.088;5.088;2023-08-01T00:27:34;1.33;;;0.93;;
15063;SDS011;7631;52.088;5.088;2023-08-01T00:29:59;1.30;;;1.10;;
15063;SDS011;7631;52.088;5.088;2023-08-01T00:32:25;1.63;;;1.10;;
15063;SDS011;7631;52.088;5.088;2023-08-01T00:34:50;1.40;;;1.17;;
15063;SDS011;7631;52.088;5.088;2023-08-01T00:37:16;1.70;;;1.00;;
15063;SDS011;7631;52.088;5.088;2023-08-01T00:39:41;1.40;;;1.00;;
15063;SDS011;7631;52.088;5.088;2023-08-01T00:42:07;2.03;;;1.40;;
15063;SDS011;7631;52.088;5.088;2023-08-01T00:44:32;1.27;;;1.13;;
15063;SDS011;7631;52.088;5.088;2023-08-01T00:46:57;1.47;;;1.10;;
15063;SDS011;7631;52.088;5.088;2023-08-01T00:49:22;2.20;;;1.23;;
15063;SDS011;7631;52.088;5.088;2023-08-01T00:51:47;1.10;;;1.00;;
15063;SDS011;7631;52.088;5.088;2023-08-01T00:54:13;1.90;;;1.20;;
15063;SDS011;7631;52.088;5.088;2023-08-01T00:56:39;2.10;;;1.17;;
15063;SDS011;7631;52.088;5.088;2023-08-01T00:59:04;1.63;;;1.17;;
15063;SDS011;7631;52.088;5.088;2023-08-01T01:01:30;1.97;;;1.20;;
15063;SDS011;7631;52.088;5.088;2023-08-01T01:03:55;1.40;;;1.07;;
15063;SDS011;7631;52.088;5.088;2023-08-01T01:08:51;1.40;;;1.00;;
15063;SDS011;7631;52.088;5.088;2023-08-01T01:11:18;1.20;;;1.00;;
15063;SDS011;7631;52.088;5.088;2023-08-01T01:13:43;1.00;;;0.90;;
15063;SDS011;7631;52.088;5.088;2023-08-01T01:16:09;1.97;;;1.17;;
15063;SDS011;7631;52.088;5.088;2023-08-01T01:18:34;1.70;;;1.40;;
15063;SDS011;7631;52.088;5.088;2023-08-01T01:20:59;1.77;;;1.13;;
15063;SDS011;7631;52.088;5.088;2023-08-01T01:23:24;1.10;;;1.00;;
15063;SDS011;7631;52.088;5.088;2023-08-01T01:25:50;1.23;;;1.00;;
15063;SDS011;7631;52.088;5.088;2023-08-01T01:28:16;1.27;;;1.10;;
15063;SDS011;7631;52.088;5.088;2023-08-01T01:30:42;1.90;;;1.27;;
15063;SDS011;7631;52.088;5.088;2023-08-01T01:33:08;1.23;;;0.90;;
15063;SDS011;7631;52.088;5.088;2023-08-01T01:35:34;1.77;;;1.00;;
15063;SDS011;7631;52.088;5.088;2023-08-01T01:37:59;2.67;;;1.17;;
15063;SDS011;7631;52.088;5.088;2023-08-01T01:40:28;1.40;;;1.30;;
15063;SDS011;7631;52.088;5.088;2023-08-01T01:42:53;1.60;;;1.27;;
15063;SDS011;7631;52.088;5.088;2023-08-01T01:45:19;1.80;;;1.30;;
15063;SDS011;7631;52.088;5.088;2023-08-01T01:47:44;1.63;;;1.23;;
15063;SDS011;7631;52.088;5.088;2023-08-01T01:50:09;1.63;;;1.10;;
15063;SDS011;7631;52.088;5.088;2023-08-01T01:52:34;2.07;;;1.40;;
15063;SDS011;7631;52.088;5.088;2023-08-01T01:55:00;2.33;;;1.20;;
15063;SDS011;7631;52.088;5.088;2023-08-01T01:57:25;1.57;;;1.10;;
15063;SDS011;7631;52.088;5.088;2023-08-01T01:59:50;1.50;;;1.20;;
15063;SDS011;7631;52.088;5.088;2023-08-01T02:02:15;2.03;;;1.13;;
15063;SDS011;7631;52.088;5.088;2023-08-01T02:04:40;1.57;;;1.20;;
15063;SDS011;7631;52.088;5.088;2023-08-01T02:07:06;2.07;;;1.10;;
15063;SDS011;7631;52.088;5.088;2023-08-01T02:09:31;1.60;;;1.30;;
15063;SDS011;7631;52.088;5.088;2023-08-01T02:11:56;1.80;;;1.20;;
15063;SDS011;7631;52.088;5.088;2023-08-01T02:14:21;1.87;;;1.20;;
15063;SDS011;7631;52.088;5.088;2023-08-01T02:16:46;1.70;;;1.20;;
15063;SDS011;7631;52.088;5.088;2023-08-01T02:19:12;1.53;;;1.00;;
15063;SDS011;7631;52.088;5.088;2023-08-01T02:21:37;2.10;;;1.43;;
15063;SDS011;7631;52.088;5.088;2023-08-01T02:24:02;2.40;;;1.57;;
15063;SDS011;7631;52.088;5.088;2023-08-01T02:26:28;1.47;;;1.10;;
15063;SDS011;7631;52.088;5.088;2023-08-01T02:28:54;2.17;;;1.37;;
15063;SDS011;7631;52.088;5.088;2023-08-01T02:31:19;1.30;;;1.10;;
15063;SDS011;7631;52.088;5.088;2023-08-01T02:33:44;1.60;;;1.20;;
15063;SDS011;7631;52.088;5.088;2023-08-01T02:36:09;1.23;;;1.03;;
15063;SDS011;7631;52.088;5.088;2023-08-01T02:38:34;3.30;;;1.50;;
15063;SDS011;7631;52.088;5.088;2023-08-01T02:41:00;2.17;;;1.60;;
15063;SDS011;7631;52.088;5.088;2023-08-01T02:43:25;2.90;;;1.60;;
15063;SDS011;7631;52.088;5.088;2023-08-01T02:45:50;1.90;;;1.47;;
15063;SDS011;7631;52.088;5.088;2023-08-01T02:48:15;1.67;;;1.37;;
15063;SDS011;7631;52.088;5.088;2023-08-01T02:50:41;3.10;;;1.57;;
15063;SDS011;7631;52.088;5.088;2023-08-01T02:53:06;2.00;;;1.60;;
15063;SDS011;7631;52.088;5.088;2023-08-01T02:55:31;2.50;;;1.50;;
15063;SDS011;7631;52.088;5.088;2023-08-01T02:57:57;2.53;;;1.40;;
15063;SDS011;7631;52.088;5.088;2023-08-01T03:00:22;1.83;;;1.40;;
15063;SDS011;7631;52.088;5.088;2023-08-01T03:02:48;2.77;;;1.53;;
15063;SDS011;7631;52.088;5.088;2023-08-01T03:05:13;2.03;;;1.43;;
15063;SDS011;7631;52.088;5.088;2023-08-01T03:07:38;2.10;;;1.63;;
15063;SDS011;7631;52.088;5.088;2023-08-01T03:10:03;2.20;;;1.50;;
15063;SDS011;7631;52.088;5.088;2023-08-01T03:12:29;2.43;;;1.63;;
15063;SDS011;7631;52.088;5.088;2023-08-01T03:14:54;2.93;;;1.77;;
15063;SDS011;7631;52.088;5.088;2023-08-01T03:17:19;2.60;;;1.70;;
15063;SDS011;7631;52.088;5.088;2023-08-01T03:19:44;2.33;;;1.73;;
15063;SDS011;7631;52.088;5.088;2023-08-01T03:22:10;2.67;;;1.73;;
15063;SDS011;7631;52.088;5.088;2023-08-01T03:24:35;2.60;;;1.73;;
15063;SDS011;7631;52.088;5.088;2023-08-01T03:27:00;2.17;;;1.60;;
15063;SDS011;7631;52.088;5.088;2023-08-01T03:29:26;1.93;;;1.50;;
15063;SDS011;7631;52.088;5.088;2023-08-01T03:31:51;2.53;;;1.83;;
15063;SDS011;7631;52.088;5.088;2023-08-01T03:34:17;2.57;;;1.87;;
15063;SDS011;7631;52.088;5.088;2023-08-01T03:36:42;3.30;;;2.10;;
15063;SDS011;7631;52.088;5.088;2023-08-01T03:39:07;3.27;;;2.03;;
15063;SDS011;7631;52.088;5.088;2023-08-01T03:41:34;2.43;;;1.73;;
15063;SDS011;7631;52.088;5.088;2023-08-01T03:44:00;3.03;;;1.80;;
15063;SDS011;7631;52.088;5.088;2023-08-01T03:46:25;2.97;;;1.77;;
15063;SDS011;7631;52.088;5.088;2023-08-01T03:48:50;3.40;;;2.00;;
15063;SDS011;7631;52.088;5.088;2023-08-01T03:51:16;2.77;;;1.90;;
15063;SDS011;7631;52.088;5.088;2023-08-01T03:53:42;2.63;;;1.80;;
15063;SDS011;7631;52.088;5.088;2023-08-01T03:56:08;3.07;;;1.90;;
15063;SDS011;7631;52.088;5.088;2023-08-01T03:58:33;2.80;;;1.83;;
15063;SDS011;7631;52.088;5.088;2023-08-01T04:00:58;2.73;;;1.90;;
15063;SDS011;7631;52.088;5.088;2023-08-01T04:03:23;3.70;;;1.90;;
15063;SDS011;7631;52.088;5.088;2023-08-01T04:05:48;2.63;;;1.70;;
15063;SDS011;7631;52.088;5.088;2023-08-01T04:08:14;2.70;;;1.80;;
15063;SDS011;7631;52.088;5.088;2023-08-01T04:10:39;2.93;;;1.90;;
15063;SDS011;7631;52.088;5.088;2023-08-01T04:13:04;3.10;;;2.00;;
15063;SDS011;7631;52.088;5.088;2023-08-01T04:15:29;3.90;;;1.70;;
15063;SDS011;7631;52.088;5.088;2023-08-01T04:17:55;2.87;;;2.10;;
15063;SDS011;7631;52.088;5.088;2023-08-01T04:20:20;3.00;;;1.80;;
15063;SDS011;7631;52.088;5.088;2023-08-01T04:22:45;3.10;;;1.87;;
15063;SDS011;7631;52.088;5.088;2023-08-01T04:25:11;2.50;;;1.67;;
15063;SDS011;7631;52.088;5.088;2023-08-01T04:27:36;2.27;;;2.00;;
15063;SDS011;7631;52.088;5.088;2023-08-01T04:30:01;2.67;;;1.97;;
15063;SDS011;7631;52.088;5.088;2023-08-01T04:32:26;3.07;;;2.00;;
15063;SDS011;7631;52.088;5.088;2023-08-01T04:34:52;3.63;;;1.90;;
15063;SDS011;7631;52.088;5.088;2023-08-01T04:37:17;3.27;;;2.03;;
15063;SDS011;7631;52.088;5.088;2023-08-01T04:39:45;3.33;;;2.00;;
15063;SDS011;7631;52.088;5.088;2023-08-01T04:42:10;3.37;;;1.93;;
15063;SDS011;7631;52.088;5.088;2023-08-01T04:44:36;2.60;;;1.97;;
15063;SDS011;7631;52.088;5.088;2023-08-01T04:47:01;3.87;;;2.10;;
15063;SDS011;7631;52.088;5.088;2023-08-01T04:49:26;3.93;;;2.03;;
15063;SDS011;7631;52.088;5.088;2023-08-01T04:51:51;2.60;;;2.10;;
15063;SDS011;7631;52.088;5.088;2023-08-01T04:54:17;3.70;;;2.20;;
15063;SDS011;7631;52.088;5.088;2023-08-01T04:56:42;3.30;;;2.23;;
15063;SDS011;7631;52.088;5.088;2023-08-01T04:59:07;3.17;;;2.03;;
15063;SDS011;7631;52.088;5.088;2023-08-01T05:01:32;4.33;;;2.50;;
15063;SDS011;7631;52.088;5.088;2023-08-01T05:03:58;3.47;;;2.50;;
15063;SDS011;7631;52.088;5.088;2023-08-01T05:06:23;3.27;;;2.17;;
15063;SDS011;7631;52.088;5.088;2023-08-01T05:08:48;4.40;;;2.30;;
15063;SDS011;7631;52.088;5.088;2023-08-01T05:11:13;4.57;;;2.13;;
15063;SDS011;7631;52.088;5.088;2023-08-01T05:13:38;2.93;;;2.10;;
15063;SDS011;7631;52.088;5.088;2023-08-01T05:16:04;3.47;;;1.90;;
15063;SDS011;7631;52.088;5.088;2023-08-01T05:18:29;3.00;;;2.40;;
15063;SDS011;7631;52.088;5.088;2023-08-01T05:20:54;4.30;;;2.43;;
15063;SDS011;7631;52.088;5.088;2023-08-01T05:23:19;4.50;;;2.37;;
15063;SDS011;7631;52.088;5.088;2023-08-01T05:25:45;3.17;;;2.20;;
15063;SDS011;7631;52.088;5.088;2023-08-01T05:28:10;3.90;;;2.23;;
15063;SDS011;7631;52.088;5.088;2023-08-01T05:30:35;4.10;;;2.40;;
15063;SDS011;7631;52.088;5.088;2023-08-01T05:33:00;4.20;;;2.40;;
15063;SDS011;7631;52.088;5.088;2023-08-01T05:35:26;3.43;;;2.23;;
15063;SDS011;7631;52.088;5.088;2023-08-01T05:37:51;3.53;;;2.13;;
15063;SDS011;7631;52.088;5.088;2023-08-01T05:40:16;3.50;;;2.63;;
15063;SDS011;7631;52.088;5.088;2023-08-01T05:42:41;4.47;;;2.40;;
15063;SDS011;7631;52.088;5.088;2023-08-01T05:45:07;3.77;;;2.10;;
15063;SDS011;7631;52.088;5.088;2023-08-01T05:47:32;4.10;;;2.03;;
15063;SDS011;7631;52.088;5.088;2023-08-01T05:49:57;5.17;;;2.37;;
15063;SDS011;7631;52.088;5.088;2023-08-01T05:52:22;3.60;;;2.20;;
15063;SDS011;7631;52.088;5.088;2023-08-01T05:54:49;4.00;;;2.40;;
15063;SDS011;7631;52.088;5.088;2023-08-01T05:57:14;3.63;;;2.67;;
15063;SDS011;7631;52.088;5.088;2023-08-01T05:59:39;4.77;;;2.50;;
15063;SDS011;7631;52.088;5.088;2023-08-01T06:02:05;3.77;;;2.20;;
15063;SDS011;7631;52.088;5.088;2023-08-01T06:04:30;3.13;;;2.23;;
15063;SDS011;7631;52.088;5.088;2023-08-01T06:06:55;2.80;;;2.20;;
15063;SDS011;7631;52.088;5.088;2023-08-01T06:09:22;3.07;;;1.97;;
15063;SDS011;7631;52.088;5.088;2023-08-01T06:11:47;3.67;;;2.10;;
15063;SDS011;7631;52.088;5.088;2023-08-01T06:14:12;3.93;;;2.33;;
15063;SDS011;7631;52.088;5.088;2023-08-01T06:16:38;3.40;;;2.00;;
15063;SDS011;7631;52.088;5.088;2023-08-01T06:19:03;3.77;;;2.47;;
15063;SDS011;7631;52.088;5.088;2023-08-01T06:21:29;5.27;;;2.50;;
15063;SDS011;7631;52.088;5.088;2023-08-01T06:23:54;4.43;;;2.23;;
15063;SDS011;7631;52.088;5.088;2023-08-01T06:26:19;4.70;;;2.53;;
15063;SDS011;7631;52.088;5.088;2023-08-01T06:28:44;2.60;;;1.90;;
15063;SDS011;7631;52.088;5.088;2023-08-01T06:31:10;2.50;;;2.00;;
15063;SDS011;7631;52.088;5.088;2023-08-01T06:33:35;4.13;;;2.27;;
15063;SDS011;7631;52.088;5.088;2023-08-01T06:36:00;3.17;;;1.97;;
15063;SDS011;7631;52.088;5.088;2023-08-01T06:38:25;3.40;;;2.20;;
15063;SDS011;7631;52.088;5.088;2023-08-01T06:40:50;4.47;;;2.30;;
15063;SDS011;7631;52.088;5.088;2023-08-01T06:43:16;4.43;;;2.63;;
15063;SDS011;7631;52.088;5.088;2023-08-01T06:45:41;5.00;;;2.37;;
15063;SDS011;7631;52.088;5.088;2023-08-01T06:48:06;4.13;;;2.47;;
15063;SDS011;7631;52.088;5.088;2023-08-01T06:50:32;5.70;;;2.57;;
15063;SDS011;7631;52.088;5.088;2023-08-01T06:52:57;4.87;;;2.83;;
15063;SDS011;7631;52.088;5.088;2023-08-01T06:55:22;4.67;;;2.60;;
15063;SDS011;7631;52.088;5.088;2023-08-01T06:57:48;5.73;;;2.70;;
15063;SDS011;7631;52.088;5.088;2023-08-01T07:00:13;4.97;;;2.60;;
15063;SDS011;7631;52.088;5.088;2023-08-01T07:02:38;4.57;;;2.40;;
15063;SDS011;7631;52.088;5.088;2023-08-01T07:05:04;4.57;;;2.63;;
15063;SDS011;7631;52.088;5.088;2023-08-01T07:07:29;4.80;;;2.37;;
15063;SDS011;7631;52.088;5.088;2023-08-01T07:09:55;3.80;;;2.43;;
15063;SDS011;7631;52.088;5.088;2023-08-01T07:12:20;3.60;;;2.37;;
15063;SDS011;7631;52.088;5.088;2023-08-01T07:14:45;3.37;;;2.10;;
15063;SDS011;7631;52.088;5.088;2023-08-01T07:17:10;3.77;;;2.37;;
15063;SDS011;7631;52.088;5.088;2023-08-01T07:19:36;3.23;;;2.13;;
15063;SDS011;7631;52.088;5.088;2023-08-01T07:22:01;3.90;;;2.30;;
15063;SDS011;7631;52.088;5.088;2023-08-01T07:24:26;4.03;;;2.20;;
15063;SDS011;7631;52.088;5.088;2023-08-01T07:26:51;3.20;;;1.90;;
15063;SDS011;7631;52.088;5.088;2023-08-01T07:29:16;4.73;;;2.03;;
15063;SDS011;7631;52.088;5.088;2023-08-01T07:31:42;3.40;;;1.97;;
15063;SDS011;7631;52.088;5.088;2023-08-01T07:34:07;5.30;;;2.80;;
15063;SDS011;7631;52.088;5.088;2023-08-01T07:36:33;3.80;;;2.40;;
15063;SDS011;7631;52.088;5.088;2023-08-01T07:38:58;5.73;;;2.40;;
15063;SDS011;7631;52.088;5.088;2023-08-01T07:41:23;4.10;;;2.30;;
15063;SDS011;7631;52.088;5.088;2023-08-01T07:43:49;3.83;;;2.33;;
15063;SDS011;7631;52.088;5.088;2023-08-01T07:46:14;4.03;;;2.17;;
15063;SDS011;7631;52.088;5.088;2023-08-01T07:48:39;4.87;;;2.40;;
15063;SDS011;7631;52.088;5.088;2023-08-01T07:51:04;6.10;;;2.43;;
15063;SDS011;7631;52.088;5.088;2023-08-01T07:53:30;3.57;;;2.03;;
15063;SDS011;7631;52.088;5.088;2023-08-01T07:55:56;4.60;;;2.53;;
15063;SDS011;7631;52.088;5.088;2023-08-01T07:58:21;4.43;;;2.37;;
15063;SDS011;7631;52.088;5.088;2023-08-01T08:00:46;4.37;;;2.20;;
15063;SDS011;7631;52.088;5.088;2023-08-01T08:03:11;4.77;;;2.23;;
15063;SDS011;7631;52.088;5.088;2023-08-01T08:05:36;3.77;;;2.10;;
15063;SDS011;7631;52.088;5.088;2023-08-01T08:08:03;3.63;;;2.30;;
15063;SDS011;7631;52.088;5.088;2023-08-01T08:10:29;4.33;;;2.47;;
15063;SDS011;7631;52.088;5.088;2023-08-01T08:12:54;3.53;;;2.13;;
15063;SDS011;7631;52.088;5.088;2023-08-01T08:15:19;5.30;;;2.00;;
15063;SDS011;7631;52.088;5.088;2023-08-01T08:17:44;4.10;;;2.10;;
15063;SDS011;7631;52.088;5.088;2023-08-01T08:20:10;5.30;;;2.37;;
15063;SDS011;7631;52.088;5.088;2023-08-01T08:22:35;4.33;;;1.97;;
15063;SDS011;7631;52.088;5.088;2023-08-01T08:25:00;5.57;;;2.43;;
15063;SDS011;7631;52.088;5.088;2023-08-01T08:27:25;4.87;;;2.23;;
15063;SDS011;7631;52.088;5.088;2023-08-01T08:29:51;6.00;;;2.60;;
15063;SDS011;7631;52.088;5.088;2023-08-01T08:32:16;4.00;;;2.27;;
15063;SDS011;7631;52.088;5.088;2023-08-01T08:34:41;3.57;;;1.70;;
15063;SDS011;7631;52.088;5.088;2023-08-01T08:37:06;3.70;;;2.20;;
15063;SDS011;7631;52.088;5.088;2023-08-01T08:39:32;2.83;;;1.93;;
15063;SDS011;7631;52.088;5.088;2023-08-01T08:41:57;3.13;;;1.80;;
15063;SDS011;7631;52.088;5.088;2023-08-01T08:44:22;3.83;;;2.40;;
15063;SDS011;7631;52.088;5.088;2023-08-01T08:46:49;3.23;;;2.00;;
15063;SDS011;7631;52.088;5.088;2023-08-01T08:49:15;3.37;;;1.83;;
15063;SDS011;7631;52.088;5.088;2023-08-01T08:51:41;2.87;;;2.20;;
15063;SDS011;7631;52.088;5.088;2023-08-01T08:54:08;3.17;;;2.00;;
15063;SDS011;7631;52.088;5.088;2023-08-01T08:56:34;3.43;;;2.10;;
15063;SDS011;7631;52.088;5.088;2023-08-01T08:59:00;3.47;;;2.10;;
15063;SDS011;7631;52.088;5.088;2023-08-01T09:01:25;3.83;;;2.00;;
15063;SDS011;7631;52.088;5.088;2023-08-01T09:03:51;4.07;;;1.93;;
15063;SDS011;7631;52.088;5.088;2023-08-01T09:06:19;2.97;;;2.17;;
15063;SDS011;7631;52.088;5.088;2023-08-01T09:08:50;5.20;;;1.93;;
15063;SDS011;7631;52.088;5.088;2023-08-01T09:11:16;5.27;;;1.90;;
15063;SDS011;7631;52.088;5.088;2023-08-01T09:13:41;4.20;;;2.50;;
15063;SDS011;7631;52.088;5.088;2023-08-01T09:16:06;3.10;;;1.80;;
15063;SDS011;7631;52.088;5.088;2023-08-01T09:18:33;4.63;;;2.00;;
15063;SDS011;7631;52.088;5.088;2023-08-01T09:20:58;3.90;;;2.17;;
15063;SDS011;7631;52.088;5.088;2023-08-01T09:23:27;5.80;;;2.23;;
15063;SDS011;7631;52.088;5.088;2023-08-01T09:25:52;4.07;;;1.87;;
15063;SDS011;7631;52.088;5.088;2023-08-01T09:28:21;4.83;;;2.10;;
15063;SDS011;7631;52.088;5.088;2023-08-01T09:30:47;5.40;;;1.77;;
15063;SDS011;7631;52.088;5.088;2023-08-01T09:33:13;4.13;;;2.03;;
15063;SDS011;7631;52.088;5.088;2023-08-01T09:35:38;4.10;;;1.90;;
15063;SDS011;7631;52.088;5.088;2023-08-01T09:38:03;4.40;;;2.20;;
15063;SDS011;7631;52.088;5.088;2023-08-01T09:40:35;4.60;;;1.87;;
15063;SDS011;7631;52.088;5.088;2023-08-01T09:43:01;3.83;;;1.90;;
15063;SDS011;7631;52.088;5.088;2023-08-01T09:45:26;4.60;;;2.37;;
15063;SDS011;7631;52.088;5.088;2023-08-01T09:47:51;4.43;;;1.87;;
15063;SDS011;7631;52.088;5.088;2023-08-01T09:50:20;5.37;;;1.97;;
15063;SDS011;7631;52.088;5.088;2023-08-01T09:52:45;3.40;;;2.03;;
15063;SDS011;7631;52.088;5.088;2023-08-01T09:55:17;2.63;;;1.80;;
15063;SDS011;7631;52.088;5.088;2023-08-01T09:57:42;2.73;;;1.80;;
15063;SDS011;7631;52.088;5.088;2023-08-01T10:00:09;4.60;;;2.27;;
15063;SDS011;7631;52.088;5.088;2023-08-01T10:02:34;3.17;;;1.67;;
15063;SDS011;7631;52.088;5.088;2023-08-01T10:05:00;4.63;;;1.77;;
15063;SDS011;7631;52.088;5.088;2023-08-01T10:07:26;4.03;;;1.90;;
15063;SDS011;7631;52.088;5.088;2023-08-01T10:09:53;3.07;;;1.93;;
15063;SDS011;7631;52.088;5.088;2023-08-01T10:12:19;4.82;;;2.17;;
15063;SDS011;7631;52.088;5.088;2023-08-01T10:14:45;3.95;;;1.90;;
15063;SDS011;7631;52.088;5.088;2023-08-01T10:17:10;3.17;;;1.95;;
15063;SDS011;7631;52.088;5.088;2023-08-01T10:19:35;3.65;;;1.63;;
15063;SDS011;7631;52.088;5.088;2023-08-01T10:22:02;4.05;;;1.77;;
15063;SDS011;7631;52.088;5.088;2023-08-01T10:24:28;5.90;;;1.98;;
15063;SDS011;7631;52.088;5.088;2023-08-01T10:26:54;3.80;;;1.75;;
15063;SDS011;7631;52.088;5.088;2023-08-01T10:29:19;3.78;;;1.70;;
15063;SDS011;7631;52.088;5.088;2023-08-01T10:31:51;3.55;;;1.60;;
15063;SDS011;7631;52.088;5.088;2023-08-01T10:34:17;3.72;;;2.00;;
15063;SDS011;7631;52.088;5.088;2023-08-01T10:36:52;3.90;;;1.77;;
15063;SDS011;7631;52.088;5.088;2023-08-01T10:39:20;2.90;;;1.52;;
15063;SDS011;7631;52.088;5.088;2023-08-01T10:41:46;3.15;;;1.83;;
15063;SDS011;7631;52.088;5.088;2023-08-01T10:44:21;5.22;;;2.00;;
15063;SDS011;7631;52.088;5.088;2023-08-01T10:46:53;2.85;;;1.50;;
15063;SDS011;7631;52.088;5.088;2023-08-01T10:49:19;2.97;;;2.00;;
15063;SDS011;7631;52.088;5.088;2023-08-01T10:51:46;3.42;;;1.90;;
15063;SDS011;7631;52.088;5.088;2023-08-01T10:54:21;3.33;;;1.60;;
15063;SDS011;7631;52.088;5.088;2023-08-01T10:56:48;2.90;;;1.77;;
15063;SDS011;7631;52.088;5.088;2023-08-01T10:59:14;2.90;;;1.70;;
15063;SDS011;7631;52.088;5.088;2023-08-01T11:01:43;5.32;;;2.17;;
15063;SDS011;7631;52.088;5.088;2023-08-01T11:04:15;3.72;;;1.80;;
15063;SDS011;7631;52.088;5.088;2023-08-01T11:06:47;5.10;;;2.10;;
15063;SDS011;7631;52.088;5.088;2023-08-01T11:09:22;3.78;;;2.13;;
15063;SDS011;7631;52.088;5.088;2023-08-01T11:11:49;2.08;;;1.52;;
15063;SDS011;7631;52.088;5.088;2023-08-01T11:14:15;2.78;;;1.50;;
15063;SDS011;7631;52.088;5.088;2023-08-01T11:16:41;2.40;;;1.70;;
15063;SDS011;7631;52.088;5.088;2023-08-01T11:19:17;3.88;;;1.90;;
15063;SDS011;7631;52.088;5.088;2023-08-01T11:21:42;3.78;;;1.52;;
15063;SDS011;7631;52.088;5.088;2023-08-01T11:24:08;4.35;;;2.03;;
15063;SDS011;7631;52.088;5.088;2023-08-01T11:26:33;3.22;;;1.77;;
15063;SDS011;7631;52.088;5.088;2023-08-01T11:29:04;3.20;;;1.88;;
15063;SDS011;7631;52.088;5.088;2023-08-01T11:31:29;3.97;;;2.08;;
15063;SDS011;7631;52.088;5.088;2023-08-01T11:33:56;2.78;;;1.80;;
15063;SDS011;7631;52.088;5.088;2023-08-01T11:36:22;3.45;;;1.85;;
15063;SDS011;7631;52.088;5.088;2023-08-01T11:38:48;2.97;;;1.65;;
15063;SDS011;7631;52.088;5.088;2023-08-01T11:41:14;3.72;;;1.85;;
15063;SDS011;7631;52.088;5.088;2023-08-01T11:43:42;3.33;;;2.08;;
15063;SDS011;7631;52.088;5.088;2023-08-01T11:46:07;4.18;;;1.73;;
15063;SDS011;7631;52.088;5.088;2023-08-01T11:48:33;4.53;;;1.80;;
15063;SDS011;7631;52.088;5.088;2023-08-01T11:50:58;3.15;;;1.70;;
15063;SDS011;7631;52.088;5.088;2023-08-01T11:53:24;3.75;;;1.70;;
15063;SDS011;7631;52.088;5.088;2023-08-01T11:55:49;3.33;;;1.70;;
15063;SDS011;7631;52.088;5.088;2023-08-01T11:58:27;4.70;;;2.03;;
15063;SDS011;7631;52.088;5.088;2023-08-01T12:01:00;3.53;;;1.50;;
15063;SDS011;7631;52.088;5.088;2023-08-01T12:03:26;5.55;;;1.80;;
15063;SDS011;7631;52.088;5.088;2023-08-01T12:05:51;3.65;;;1.67;;
15063;SDS011;7631;52.088;5.088;2023-08-01T12:08:16;4.30;;;1.90;;
15063;SDS011;7631;52.088;5.088;2023-08-01T12:10:42;3.72;;;2.10;;
15063;SDS011;7631;52.088;5.088;2023-08-01T12:13:21;3.63;;;2.00;;
15063;SDS011;7631;52.088;5.088;2023-08-01T12:15:47;3.08;;;1.58;;
15063;SDS011;7631;52.088;5.088;2023-08-01T12:18:22;4.38;;;1.75;;
15063;SDS011;7631;52.088;5.088;2023-08-01T12:20:48;3.58;;;1.60;;
15063;SDS011;7631;52.088;5.088;2023-08-01T12:23:13;4.05;;;1.63;;
15063;SDS011;7631;52.088;5.088;2023-08-01T12:25:38;4.00;;;1.85;;
15063;SDS011;7631;52.088;5.088;2023-08-01T12:28:04;5.10;;;2.00;;
15063;SDS011;7631;52.088;5.088;2023-08-01T12:30:29;4.20;;;1.95;;
15063;SDS011;7631;52.088;5.088;2023-08-01T12:32:54;4.55;;;1.67;;
15063;SDS011;7631;52.088;5.088;2023-08-01T12:35:19;6.00;;;1.80;;
15063;SDS011;7631;52.088;5.088;2023-08-01T12:37:45;2.47;;;1.27;;
15063;SDS011;7631;52.088;5.088;2023-08-01T12:40:10;3.38;;;1.70;;
15063;SDS011;7631;52.088;5.088;2023-08-01T12:42:35;3.10;;;1.60;;
15063;SDS011;7631;52.088;5.088;2023-08-01T12:45:00;3.58;;;1.70;;
15063;SDS011;7631;52.088;5.088;2023-08-01T12:47:27;3.13;;;1.60;;
15063;SDS011;7631;52.088;5.088;2023-08-01T12:49:52;3.15;;;1.60;;
15063;SDS011;7631;52.088;5.088;2023-08-01T12:52:24;5.20;;;1.85;;
15063;SDS011;7631;52.088;5.088;2023-08-01T12:54:49;3.17;;;1.45;;
15063;SDS011;7631;52.088;5.088;2023-08-01T12:57:15;2.78;;;1.90;;
15063;SDS011;7631;52.088;5.088;2023-08-01T12:59:40;2.88;;;1.85;;
15063;SDS011;7631;52.088;5.088;2023-08-01T13:02:05;3.50;;;1.90;;
15063;SDS011;7631;52.088;5.088;2023-08-01T13:04:33;3.60;;;1.60;;
15063;SDS011;7631;52.088;5.088;2023-08-01T13:06:58;2.13;;;1.60;;
15063;SDS011;7631;52.088;5.088;2023-08-01T13:09:23;5.15;;;1.63;;
15063;SDS011;7631;52.088;5.088;2023-08-01T13:11:49;2.10;;;1.38;;
15063;SDS011;7631;52.088;5.088;2023-08-01T13:14:14;3.47;;;1.90;;
15063;SDS011;7631;52.088;5.088;2023-08-01T13:16:39;4.32;;;2.15;;
15063;SDS011;7631;52.088;5.088;2023-08-01T13:19:04;3.83;;;1.58;;
15063;SDS011;7631;52.088;5.088;2023-08-01T13:21:29;3.47;;;1.48;;
15063;SDS011;7631;52.088;5.088;2023-08-01T13:23:55;3.70;;;1.70;;
15063;SDS011;7631;52.088;5.088;2023-08-01T13:26:20;2.95;;;1.48;;
15063;SDS011;7631;52.088;5.088;2023-08-01T13:28:46;4.20;;;1.30;;
15063;SDS011;7631;52.088;5.088;2023-08-01T13:31:11;3.00;;;1.63;;
15063;SDS011;7631;52.088;5.088;2023-08-01T13:33:36;2.42;;;1.35;;
15063;SDS011;7631;52.088;5.088;2023-08-01T13:36:01;1.95;;;1.27;;
15063;SDS011;7631;52.088;5.088;2023-08-01T13:38:27;3.00;;;1.40;;
15063;SDS011;7631;52.088;5.088;2023-08-01T13:40:52;3.25;;;1.55;;
15063;SDS011;7631;52.088;5.088;2023-08-01T13:43:17;2.85;;;1.50;;
15063;SDS011;7631;52.088;5.088;2023-08-01T13:45:42;3.83;;;1.38;;
15063;SDS011;7631;52.088;5.088;2023-08-01T13:48:07;3.17;;;1.70;;
15063;SDS011;7631;52.088;5.088;2023-08-01T13:50:33;4.25;;;1.80;;
15063;SDS011;7631;52.088;5.088;2023-08-01T13:52:58;3.08;;;1.40;;
15063;SDS011;7631;52.088;5.088;2023-08-01T13:55:23;2.28;;;1.30;;
15063;SDS011;7631;52.088;5.088;2023-08-01T13:57:48;4.32;;;1.80;;
15063;SDS011;7631;52.088;5.088;2023-08-01T14:00:14;4.10;;;1.80;;
15063;SDS011;7631;52.088;5.088;2023-08-01T14:02:39;2.80;;;1.35;;
15063;SDS011;7631;52.088;5.088;2023-08-01T14:05:04;3.17;;;1.60;;
15063;SDS011;7631;52.088;5.088;2023-08-01T14:07:30;4.88;;;1.60;;
15063;SDS011;7631;52.088;5.088;2023-08-01T14:09:55;3.17;;;1.48;;
15063;SDS011;7631;52.088;5.088;2023-08-01T14:12:20;3.15;;;1.48;;
15063;SDS011;7631;52.088;5.088;2023-08-01T14:14:47;4.93;;;1.70;;
15063;SDS011;7631;52.088;5.088;2023-08-01T14:17:12;4.68;;;1.70;;
15063;SDS011;7631;52.088;5.088;2023-08-01T14:19:37;4.15;;;1.70;;
15063;SDS011;7631;52.088;5.088;2023-08-01T14:22:02;2.38;;;1.60;;
15063;SDS011;7631;52.088;5.088;2023-08-01T14:24:28;3.08;;;1.80;;
15063;SDS011;7631;52.088;5.088;2023-08-01T14:26:53;4.55;;;1.42;;
15063;SDS011;7631;52.088;5.088;2023-08-01T14:29:18;2.90;;;1.48;;
15063;SDS011;7631;52.088;5.088;2023-08-01T14:31:47;3.05;;;1.60;;
15063;SDS011;7631;52.088;5.088;2023-08-01T14:34:12;3.88;;;1.48;;
15063;SDS011;7631;52.088;5.088;2023-08-01T14:36:37;2.63;;;1.67;;
15063;SDS011;7631;52.088;5.088;2023-08-01T14:39:02;3.67;;;1.40;;
15063;SDS011;7631;52.088;5.088;2023-08-01T14:41:28;3.33;;;1.50;;
15063;SDS011;7631;52.088;5.088;2023-08-01T14:43:53;4.55;;;1.75;;
15063;SDS011;7631;52.088;5.088;2023-08-01T14:46:19;4.00;;;1.55;;
15063;SDS011;7631;52.088;5.088;2023-08-01T14:48:45;2.33;;;1.15;;
15063;SDS011;7631;52.088;5.088;2023-08-01T14:51:10;2.50;;;1.40;;
15063;SDS011;7631;52.088;5.088;2023-08-01T14:53:35;4.05;;;2.05;;